Estero, Florida
Current Conditions -  °F | °C
As of 9:02 AM on Sunday 23 Nov 2014 (Local Time) from KRSW Reporting Station
Scattered Clouds Scattered Clouds  
Wind Chill: 76°   Ceiling: Unl
Heat Index: 76°   Visibility: 10mi
Dew Point: 72°   Wind: 17mph
Humidity: 87%   Direction: 150°SSE
Pressure: 30.01"   Gusts: NA
Location:  26.44°N, 81.81°W
Report Text: KRSW 231402Z 15015KT 10SM SCT010 SCT022 24/22 A3001 RMK AO2 T02440222
Loading
Personal Weather Stations






























Interactive Weather Map New forecast layout! Learn more

10-Day Weather Forecast

Advertisements
Track Severe Weather on mobile